sensor_id;sensor_type;location;lat;lon;timestamp;pressure;altitude;pressure_sealevel;temperature;humidity
64095;BME280;50353;51.420;5.682;2023-03-18T00:00:26;100506.94;;;13.22;74.76
64095;BME280;50353;51.420;5.682;2023-03-18T00:02:51;100515.41;;;13.27;73.89
64095;BME280;50353;51.420;5.682;2023-03-18T00:05:17;100515.81;;;13.56;73.35
64095;BME280;50353;51.420;5.682;2023-03-18T00:07:44;100514.84;;;13.91;71.20
64095;BME280;50353;51.420;5.682;2023-03-18T00:10:10;100514.25;;;13.76;72.12
64095;BME280;50353;51.420;5.682;2023-03-18T00:12:37;100514.72;;;13.47;73.55
64095;BME280;50353;51.420;5.682;2023-03-18T00:15:07;100512.56;;;13.17;74.91
64095;BME280;50353;51.420;5.682;2023-03-18T00:17:33;100516.91;;;13.88;71.93
64095;BME280;50353;51.420;5.682;2023-03-18T00:19:58;100513.19;;;13.67;72.92
64095;BME280;50353;51.420;5.682;2023-03-18T00:22:35;100512.69;;;13.96;72.03
64095;BME280;50353;51.420;5.682;2023-03-18T00:25:02;100504.44;;;13.43;73.88
64095;BME280;50353;51.420;5.682;2023-03-18T00:27:28;100508.69;;;13.45;74.26
64095;BME280;50353;51.420;5.682;2023-03-18T00:29:54;100511.34;;;13.79;72.95
64095;BME280;50353;51.420;5.682;2023-03-18T00:32:20;100509.66;;;13.44;74.46
64095;BME280;50353;51.420;5.682;2023-03-18T00:34:46;100515.44;;;13.38;75.15
64095;BME280;50353;51.420;5.682;2023-03-18T00:37:12;100515.66;;;13.35;75.70
64095;BME280;50353;51.420;5.682;2023-03-18T00:39:43;100517.44;;;13.34;75.54
64095;BME280;50353;51.420;5.682;2023-03-18T00:42:10;100534.28;;;13.11;76.38
64095;BME280;50353;51.420;5.682;2023-03-18T00:44:36;100540.34;;;13.60;74.53
64095;BME280;50353;51.420;5.682;2023-03-18T00:47:02;100541.19;;;13.13;76.73
64095;BME280;50353;51.420;5.682;2023-03-18T00:49:28;100552.06;;;13.22;76.67
64095;BME280;50353;51.420;5.682;2023-03-18T00:51:54;100551.66;;;13.62;74.47
64095;BME280;50353;51.420;5.682;2023-03-18T00:54:19;100558.09;;;13.82;73.95
64095;BME280;50353;51.420;5.682;2023-03-18T00:56:45;100568.59;;;13.83;73.84
64095;BME280;50353;51.420;5.682;2023-03-18T00:59:11;100568.59;;;13.72;75.68
64095;BME280;50353;51.420;5.682;2023-03-18T01:01:37;100571.34;;;13.93;74.95
64095;BME280;50353;51.420;5.682;2023-03-18T01:04:03;100579.50;;;13.33;77.60
64095;BME280;50353;51.420;5.682;2023-03-18T01:06:30;100571.69;;;13.55;77.88
64095;BME280;50353;51.420;5.682;2023-03-18T01:08:58;100557.00;;;13.84;77.01
64095;BME280;50353;51.420;5.682;2023-03-18T01:11:26;100566.59;;;13.40;79.93
64095;BME280;50353;51.420;5.682;2023-03-18T01:13:52;100562.97;;;13.41;79.62
64095;BME280;50353;51.420;5.682;2023-03-18T01:16:18;100564.81;;;13.52;81.42
64095;BME280;50353;51.420;5.682;2023-03-18T01:18:45;100557.97;;;13.61;80.71
64095;BME280;50353;51.420;5.682;2023-03-18T01:21:10;100548.03;;;13.51;82.62
64095;BME280;50353;51.420;5.682;2023-03-18T01:23:36;100542.00;;;13.49;82.88
64095;BME280;50353;51.420;5.682;2023-03-18T01:26:02;100540.00;;;13.29;83.79
64095;BME280;50353;51.420;5.682;2023-03-18T01:28:28;100538.94;;;12.96;86.87
64095;BME280;50353;51.420;5.682;2023-03-18T01:30:54;100540.69;;;13.19;85.16
64095;BME280;50353;51.420;5.682;2023-03-18T01:33:21;100541.41;;;13.10;86.69
64095;BME280;50353;51.420;5.682;2023-03-18T01:35:52;100526.97;;;12.79;88.53
64095;BME280;50353;51.420;5.682;2023-03-18T01:38:18;100530.28;;;12.70;88.18
64095;BME280;50353;51.420;5.682;2023-03-18T01:40:43;100524.53;;;12.51;89.99
64095;BME280;50353;51.420;5.682;2023-03-18T01:45:34;100528.47;;;12.70;90.52
64095;BME280;50353;51.420;5.682;2023-03-18T01:48:00;100524.34;;;12.90;89.35
64095;BME280;50353;51.420;5.682;2023-03-18T01:50:29;100515.50;;;12.54;91.52
64095;BME280;50353;51.420;5.682;2023-03-18T01:53:05;100525.03;;;12.57;92.38
64095;BME280;50353;51.420;5.682;2023-03-18T01:55:33;100529.69;;;12.77;91.30
64095;BME280;50353;51.420;5.682;2023-03-18T01:58:02;100524.09;;;12.58;92.58
64095;BME280;50353;51.420;5.682;2023-03-18T02:00:28;100536.56;;;12.68;92.08
64095;BME280;50353;51.420;5.682;2023-03-18T02:02:54;100535.53;;;12.34;93.38
64095;BME280;50353;51.420;5.682;2023-03-18T02:05:22;100532.44;;;12.40;94.27
64095;BME280;50353;51.420;5.682;2023-03-18T02:07:49;100536.38;;;12.59;93.53
64095;BME280;50353;51.420;5.682;2023-03-18T02:10:25;100535.81;;;12.66;92.93
64095;BME280;50353;51.420;5.682;2023-03-18T02:12:57;100550.31;;;12.74;92.52
64095;BME280;50353;51.420;5.682;2023-03-18T02:15:25;100552.19;;;12.84;90.77
64095;BME280;50353;51.420;5.682;2023-03-18T02:18:14;100551.56;;;12.81;91.88
64095;BME280;50353;51.420;5.682;2023-03-18T02:25:51;100556.06;;;12.67;94.18
64095;BME280;50353;51.420;5.682;2023-03-18T02:28:22;100556.06;;;12.67;91.49
64095;BME280;50353;51.420;5.682;2023-03-18T02:30:52;100556.22;;;12.77;92.91
64095;BME280;50353;51.420;5.682;2023-03-18T02:33:20;100555.41;;;12.15;96.66
64095;BME280;50353;51.420;5.682;2023-03-18T02:35:51;100556.63;;;12.36;96.26
64095;BME280;50353;51.420;5.682;2023-03-18T02:38:18;100558.47;;;12.71;94.96
64095;BME280;50353;51.420;5.682;2023-03-18T02:40:43;100558.31;;;13.21;91.31
64095;BME280;50353;51.420;5.682;2023-03-18T02:43:18;100553.31;;;13.05;91.82
64095;BME280;50353;51.420;5.682;2023-03-18T02:48:23;100555.44;;;12.88;93.73
64095;BME280;50353;51.420;5.682;2023-03-18T02:50:50;100556.75;;;12.82;92.93
64095;BME280;50353;51.420;5.682;2023-03-18T02:53:16;100563.06;;;12.68;93.49
64095;BME280;50353;51.420;5.682;2023-03-18T02:55:42;100560.97;;;12.85;93.46
64095;BME280;50353;51.420;5.682;2023-03-18T02:58:07;100564.78;;;12.70;93.30
64095;BME280;50353;51.420;5.682;2023-03-18T03:00:34;100564.47;;;12.85;93.56
64095;BME280;50353;51.420;5.682;2023-03-18T03:02:59;100571.31;;;12.77;93.80
64095;BME280;50353;51.420;5.682;2023-03-18T03:05:26;100574.63;;;12.92;92.72
64095;BME280;50353;51.420;5.682;2023-03-18T03:07:51;100568.03;;;12.49;95.45
64095;BME280;50353;51.420;5.682;2023-03-18T03:10:16;100568.78;;;12.75;93.02
64095;BME280;50353;51.420;5.682;2023-03-18T03:12:42;100577.34;;;12.79;94.12
64095;BME280;50353;51.420;5.682;2023-03-18T03:15:08;100572.66;;;12.34;95.32
64095;BME280;50353;51.420;5.682;2023-03-18T03:17:34;100582.34;;;12.46;95.14
64095;BME280;50353;51.420;5.682;2023-03-18T03:19:59;100575.50;;;12.68;94.38
64095;BME280;50353;51.420;5.682;2023-03-18T03:22:25;100570.00;;;12.58;94.82
64095;BME280;50353;51.420;5.682;2023-03-18T03:24:51;100580.56;;;12.95;92.21
64095;BME280;50353;51.420;5.682;2023-03-18T03:27:17;100581.56;;;12.81;93.53
64095;BME280;50353;51.420;5.682;2023-03-18T03:29:42;100588.34;;;12.61;93.07
64095;BME280;50353;51.420;5.682;2023-03-18T03:32:08;100580.69;;;12.70;94.19
64095;BME280;50353;51.420;5.682;2023-03-18T03:34:35;100580.09;;;12.77;95.28
64095;BME280;50353;51.420;5.682;2023-03-18T03:37:00;100582.47;;;12.69;95.57
64095;BME280;50353;51.420;5.682;2023-03-18T03:39:25;100587.09;;;12.54;96.51
64095;BME280;50353;51.420;5.682;2023-03-18T03:41:51;100588.44;;;12.23;98.20
64095;BME280;50353;51.420;5.682;2023-03-18T03:44:17;100585.91;;;12.34;98.69
64095;BME280;50353;51.420;5.682;2023-03-18T03:46:43;100584.16;;;12.46;98.67
64095;BME280;50353;51.420;5.682;2023-03-18T03:49:08;100589.31;;;12.60;96.11
64095;BME280;50353;51.420;5.682;2023-03-18T03:51:34;100587.94;;;12.55;95.88
64095;BME280;50353;51.420;5.682;2023-03-18T03:53:59;100593.97;;;12.57;96.46
64095;BME280;50353;51.420;5.682;2023-03-18T03:56:24;100593.13;;;12.56;97.31
64095;BME280;50353;51.420;5.682;2023-03-18T03:58:49;100599.09;;;12.47;97.39
64095;BME280;50353;51.420;5.682;2023-03-18T04:01:15;100606.38;;;12.06;100.00
64095;BME280;50353;51.420;5.682;2023-03-18T04:03:41;100606.59;;;12.16;100.00
64095;BME280;50353;51.420;5.682;2023-03-18T04:06:06;100603.81;;;12.30;98.60
64095;BME280;50353;51.420;5.682;2023-03-18T04:08:32;100611.94;;;12.53;97.38
64095;BME280;50353;51.420;5.682;2023-03-18T04:10:57;100610.94;;;12.30;98.12
64095;BME280;50353;51.420;5.682;2023-03-18T04:13:23;100611.66;;;12.32;98.61
64095;BME280;50353;51.420;5.682;2023-03-18T04:15:48;100615.84;;;12.84;95.60
64095;BME280;50353;51.420;5.682;2023-03-18T04:18:14;100611.72;;;12.43;97.90
64095;BME280;50353;51.420;5.682;2023-03-18T04:20:41;100613.72;;;12.52;96.50
64095;BME280;50353;51.420;5.682;2023-03-18T04:23:06;100612.88;;;12.15;99.20
64095;BME280;50353;51.420;5.682;2023-03-18T04:25:32;100617.94;;;12.05;100.00
64095;BME280;50353;51.420;5.682;2023-03-18T04:27:57;100614.34;;;12.06;100.00
64095;BME280;50353;51.420;5.682;2023-03-18T04:30:23;100617.84;;;11.81;100.00
64095;BME280;50353;51.420;5.682;2023-03-18T04:32:50;100620.47;;;12.20;99.37
64095;BME280;50353;51.420;5.682;2023-03-18T04:35:16;100624.13;;;12.80;94.03
64095;BME280;50353;51.420;5.682;2023-03-18T04:37:41;100618.16;;;12.89;93.57
64095;BME280;50353;51.420;5.682;2023-03-18T04:40:08;100621.81;;;12.38;97.56
64095;BME280;50353;51.420;5.682;2023-03-18T04:42:34;100617.47;;;12.37;98.23
64095;BME280;50353;51.420;5.682;2023-03-18T04:44:59;100623.78;;;12.47;96.02
64095;BME280;50353;51.420;5.682;2023-03-18T04:47:26;100615.47;;;12.41;96.49
64095;BME280;50353;51.420;5.682;2023-03-18T04:49:52;100630.97;;;12.58;95.83
64095;BME280;50353;51.420;5.682;2023-03-18T04:52:18;100626.72;;;12.31;97.59
64095;BME280;50353;51.420;5.682;2023-03-18T04:54:44;100625.44;;;12.37;97.52
64095;BME280;50353;51.420;5.682;2023-03-18T04:57:09;100630.09;;;12.33;98.20
64095;BME280;50353;51.420;5.682;2023-03-18T04:59:35;100620.66;;;12.42;97.96
64095;BME280;50353;51.420;5.682;2023-03-18T05:02:00;100629.19;;;12.22;97.71
64095;BME280;50353;51.420;5.682;2023-03-18T05:04:25;100625.34;;;11.74;100.00
64095;BME280;50353;51.420;5.682;2023-03-18T05:06:51;100636.47;;;12.05;100.00
64095;BME280;50353;51.420;5.682;2023-03-18T05:09:17;100634.69;;;12.06;100.00
64095;BME280;50353;51.420;5.682;2023-03-18T05:11:43;100637.31;;;12.18;99.51
64095;BME280;50353;51.420;5.682;2023-03-18T05:14:09;100636.69;;;12.28;97.38
64095;BME280;50353;51.420;5.682;2023-03-18T05:16:34;100642.88;;;12.52;95.57
64095;BME280;50353;51.420;5.682;2023-03-18T05:19:01;100647.00;;;12.57;95.95
64095;BME280;50353;51.420;5.682;2023-03-18T05:21:26;100638.56;;;12.39;95.92
64095;BME280;50353;51.420;5.682;2023-03-18T05:23:51;100636.84;;;12.50;95.17
64095;BME280;50353;51.420;5.682;2023-03-18T05:26:16;100649.63;;;12.70;94.01
64095;BME280;50353;51.420;5.682;2023-03-18T05:28:42;100638.78;;;12.36;97.36
64095;BME280;50353;51.420;5.682;2023-03-18T05:31:07;100643.16;;;12.37;98.32
64095;BME280;50353;51.420;5.682;2023-03-18T05:33:32;100637.44;;;12.17;97.88
64095;BME280;50353;51.420;5.682;2023-03-18T05:35:58;100643.16;;;11.98;99.29
64095;BME280;50353;51.420;5.682;2023-03-18T05:38:23;100640.06;;;11.91;99.64
64095;BME280;50353;51.420;5.682;2023-03-18T05:40:49;100646.03;;;12.21;98.15
64095;BME280;50353;51.420;5.682;2023-03-18T05:43:14;100658.25;;;12.60;94.44
64095;BME280;50353;51.420;5.682;2023-03-18T05:45:40;100657.72;;;12.68;92.26
64095;BME280;50353;51.420;5.682;2023-03-18T05:48:06;100656.25;;;12.51;94.45
64095;BME280;50353;51.420;5.682;2023-03-18T05:50:33;100653.94;;;12.46;94.14
64095;BME280;50353;51.420;5.682;2023-03-18T05:53:00;100661.59;;;12.38;95.44
64095;BME280;50353;51.420;5.682;2023-03-18T05:55:26;100663.63;;;12.22;97.09
64095;BME280;50353;51.420;5.682;2023-03-18T05:57:53;100665.63;;;12.05;97.10
64095;BME280;50353;51.420;5.682;2023-03-18T06:00:18;100674.22;;;11.96;96.26
64095;BME280;50353;51.420;5.682;2023-03-18T06:02:44;100673.09;;;12.50;94.78
64095;BME280;50353;51.420;5.682;2023-03-18T06:05:10;100668.81;;;12.10;96.77
64095;BME280;50353;51.420;5.682;2023-03-18T06:07:36;100671.56;;;12.22;94.68
64095;BME280;50353;51.420;5.682;2023-03-18T06:10:02;100662.03;;;12.06;95.99
64095;BME280;50353;51.420;5.682;2023-03-18T06:12:27;100660.75;;;11.99;96.60
64095;BME280;50353;51.420;5.682;2023-03-18T06:14:53;100667.22;;;12.21;94.89
64095;BME280;50353;51.420;5.682;2023-03-18T06:17:20;100670.31;;;12.02;96.53
64095;BME280;50353;51.420;5.682;2023-03-18T06:19:45;100674.72;;;12.27;95.03
64095;BME280;50353;51.420;5.682;2023-03-18T06:22:12;100669.13;;;12.06;96.55
64095;BME280;50353;51.420;5.682;2023-03-18T06:24:39;100669.97;;;12.06;97.13
64095;BME280;50353;51.420;5.682;2023-03-18T06:27:04;100673.69;;;12.66;94.51
64095;BME280;50353;51.420;5.682;2023-03-18T06:29:30;100680.88;;;12.53;93.21
64095;BME280;50353;51.420;5.682;2023-03-18T06:31:55;100679.81;;;12.56;93.60
64095;BME280;50353;51.420;5.682;2023-03-18T06:34:21;100679.38;;;12.36;94.35
64095;BME280;50353;51.420;5.682;2023-03-18T06:36:46;100675.47;;;11.90;98.11
64095;BME280;50353;51.420;5.682;2023-03-18T06:39:11;100682.38;;;12.31;95.08
64095;BME280;50353;51.420;5.682;2023-03-18T06:41:38;100686.59;;;12.60;93.70
64095;BME280;50353;51.420;5.682;2023-03-18T06:44:03;100686.66;;;12.71;92.17
64095;BME280;50353;51.420;5.682;2023-03-18T06:46:29;100689.53;;;12.92;90.95
64095;BME280;50353;51.420;5.682;2023-03-18T06:48:54;100693.13;;;12.54;92.02
64095;BME280;50353;51.420;5.682;2023-03-18T06:51:20;100688.75;;;13.03;91.26
64095;BME280;50353;51.420;5.682;2023-03-18T06:53:45;100687.66;;;12.94;90.97
64095;BME280;50353;51.420;5.682;2023-03-18T06:56:11;100697.25;;;13.08;91.17
64095;BME280;50353;51.420;5.682;2023-03-18T06:58:40;100695.25;;;12.62;93.04
64095;BME280;50353;51.420;5.682;2023-03-18T07:01:06;100702.56;;;13.08;91.43
64095;BME280;50353;51.420;5.682;2023-03-18T07:03:32;100696.03;;;13.25;89.18
64095;BME280;50353;51.420;5.682;2023-03-18T07:05:58;100697.09;;;12.85;92.41
64095;BME280;50353;51.420;5.682;2023-03-18T07:08:23;100704.38;;;13.56;88.52
64095;BME280;50353;51.420;5.682;2023-03-18T07:10:51;100704.47;;;13.30;88.28
64095;BME280;50353;51.420;5.682;2023-03-18T07:13:17;100709.38;;;13.72;87.10
64095;BME280;50353;51.420;5.682;2023-03-18T07:15:43;100710.56;;;12.95;89.53
64095;BME280;50353;51.420;5.682;2023-03-18T07:18:08;100722.19;;;13.78;87.92
64095;BME280;50353;51.420;5.682;2023-03-18T07:20:34;100713.09;;;12.97;89.45
64095;BME280;50353;51.420;5.682;2023-03-18T07:23:01;100726.94;;;13.86;86.56
64095;BME280;50353;51.420;5.682;2023-03-18T07:25:27;100730.00;;;13.68;87.58
64095;BME280;50353;51.420;5.682;2023-03-18T07:27:54;100720.78;;;13.97;83.80
64095;BME280;50353;51.420;5.682;2023-03-18T07:30:19;100729.44;;;13.76;84.88
64095;BME280;50353;51.420;5.682;2023-03-18T07:32:45;100729.78;;;14.18;83.44
64095;BME280;50353;51.420;5.682;2023-03-18T07:35:11;100728.69;;;14.21;82.57
64095;BME280;50353;51.420;5.682;2023-03-18T07:37:39;100738.84;;;13.69;86.55
64095;BME280;50353;51.420;5.682;2023-03-18T07:40:05;100740.41;;;14.18;83.19
64095;BME280;50353;51.420;5.682;2023-03-18T07:42:30;100743.78;;;14.20;83.83
64095;BME280;50353;51.420;5.682;2023-03-18T07:44:56;100751.19;;;14.28;83.13
64095;BME280;50353;51.420;5.682;2023-03-18T07:47:22;100754.19;;;14.24;82.50
64095;BME280;50353;51.420;5.682;2023-03-18T07:49:49;100751.84;;;13.96;85.18
64095;BME280;50353;51.420;5.682;2023-03-18T07:52:16;100752.50;;;14.23;84.10
64095;BME280;50353;51.420;5.682;2023-03-18T07:54:42;100755.66;;;14.50;82.42
64095;BME280;50353;51.420;5.682;2023-03-18T07:57:07;100755.22;;;14.68;80.89
64095;BME280;50353;51.420;5.682;2023-03-18T07:59:34;100753.75;;;14.52;80.21
64095;BME280;50353;51.420;5.682;2023-03-18T08:02:00;100759.78;;;14.54;80.20
64095;BME280;50353;51.420;5.682;2023-03-18T08:04:26;100765.28;;;14.17;83.00
64095;BME280;50353;51.420;5.682;2023-03-18T08:06:51;100762.19;;;14.46;80.84
64095;BME280;50353;51.420;5.682;2023-03-18T08:09:17;100756.25;;;14.31;81.52
64095;BME280;50353;51.420;5.682;2023-03-18T08:11:42;100755.84;;;14.13;81.53
64095;BME280;50353;51.420;5.682;2023-03-18T08:14:07;100745.97;;;14.27;81.17
64095;BME280;50353;51.420;5.682;2023-03-18T08:16:33;100750.59;;;14.36;82.26
64095;BME280;50353;51.420;5.682;2023-03-18T08:18:58;100753.00;;;14.50;81.30
64095;BME280;50353;51.420;5.682;2023-03-18T08:21:23;100751.09;;;14.98;80.27
64095;BME280;50353;51.420;5.682;2023-03-18T08:23:49;100745.72;;;15.20;79.77
64095;BME280;50353;51.420;5.682;2023-03-18T08:26:14;100755.16;;;15.13;78.94
64095;BME280;50353;51.420;5.682;2023-03-18T08:28:40;100752.69;;;14.89;78.73
64095;BME280;50353;51.420;5.682;2023-03-18T08:31:05;100751.09;;;15.42;78.18
64095;BME280;50353;51.420;5.682;2023-03-18T08:33:31;100751.38;;;15.38;78.94
64095;BME280;50353;51.420;5.682;2023-03-18T08:35:57;100763.16;;;15.89;76.95
64095;BME280;50353;51.420;5.682;2023-03-18T08:38:23;100761.34;;;16.32;74.37
64095;BME280;50353;51.420;5.682;2023-03-18T08:40:50;100765.53;;;16.56;72.23
64095;BME280;50353;51.420;5.682;2023-03-18T08:43:15;100765.84;;;16.63;70.90
64095;BME280;50353;51.420;5.682;2023-03-18T08:45:41;100768.63;;;15.88;72.57
64095;BME280;50353;51.420;5.682;2023-03-18T08:48:07;100763.47;;;15.75;74.46
64095;BME280;50353;51.420;5.682;2023-03-18T08:50:33;100765.03;;;15.45;74.89
64095;BME280;50353;51.420;5.682;2023-03-18T08:53:00;100770.31;;;15.57;74.42
64095;BME280;50353;51.420;5.682;2023-03-18T08:55:34;100775.47;;;15.81;73.26
64095;BME280;50353;51.420;5.682;2023-03-18T08:58:01;100773.38;;;15.52;74.46
64095;BME280;50353;51.420;5.682;2023-03-18T09:00:28;100772.81;;;15.37;75.88
64095;BME280;50353;51.420;5.682;2023-03-18T09:02:53;100773.06;;;15.99;74.63
64095;BME280;50353;51.420;5.682;2023-03-18T09:05:19;100786.06;;;16.34;72.01
64095;BME280;50353;51.420;5.682;2023-03-18T09:07:45;100774.63;;;16.01;73.04
64095;BME280;50353;51.420;5.682;2023-03-18T09:10:12;100778.97;;;16.23;72.51
64095;BME280;50353;51.420;5.682;2023-03-18T09:12:40;100778.00;;;15.71;73.09
64095;BME280;50353;51.420;5.682;2023-03-18T09:15:07;100779.44;;;15.86;72.78
64095;BME280;50353;51.420;5.682;2023-03-18T09:17:34;100766.09;;;15.86;72.41
64095;BME280;50353;51.420;5.682;2023-03-18T09:20:01;100774.88;;;16.19;71.89
64095;BME280;50353;51.420;5.682;2023-03-18T09:22:26;100774.88;;;16.19;72.33
64095;BME280;50353;51.420;5.682;2023-03-18T09:24:52;100780.78;;;16.96;69.59
64095;BME280;50353;51.420;5.682;2023-03-18T09:27:18;100777.59;;;16.81;69.61
64095;BME280;50353;51.420;5.682;2023-03-18T09:29:43;100785.16;;;16.76;69.49
64095;BME280;50353;51.420;5.682;2023-03-18T09:32:08;100782.44;;;16.97;69.65
64095;BME280;50353;51.420;5.682;2023-03-18T09:34:34;100781.75;;;16.95;70.17
64095;BME280;50353;51.420;5.682;2023-03-18T09:37:00;100778.25;;;16.43;70.45
64095;BME280;50353;51.420;5.682;2023-03-18T09:39:25;100779.72;;;17.18;70.63
64095;BME280;50353;51.420;5.682;2023-03-18T09:42:03;100781.59;;;17.86;67.30
64095;BME280;50353;51.420;5.682;2023-03-18T09:44:34;100778.66;;;17.60;66.32
64095;BME280;50353;51.420;5.682;2023-03-18T09:48:04;100779.19;;;18.22;64.41
64095;BME280;50353;51.420;5.682;2023-03-18T09:50:29;100784.53;;;17.64;64.82
64095;BME280;50353;51.420;5.682;2023-03-18T09:55:26;100771.88;;;18.24;63.33
64095;BME280;50353;51.420;5.682;2023-03-18T09:57:59;100787.56;;;18.47;62.30
64095;BME280;50353;51.420;5.682;2023-03-18T10:00:33;100781.97;;;18.78;62.19
64095;BME280;50353;51.420;5.682;2023-03-18T10:03:04;100787.56;;;18.47;61.60
64095;BME280;50353;51.420;5.682;2023-03-18T10:06:02;100782.53;;;18.34;60.94
64095;BME280;50353;51.420;5.682;2023-03-18T10:11:22;100775.81;;;17.81;62.43
64095;BME280;50353;51.420;5.682;2023-03-18T10:14:17;100770.00;;;19.10;59.36
64095;BME280;50353;51.420;5.682;2023-03-18T10:17:05;100775.84;;;19.23;58.25
64095;BME280;50353;51.420;5.682;2023-03-18T10:19:34;100771.16;;;19.07;57.96
64095;BME280;50353;51.420;5.682;2023-03-18T10:27:39;100780.03;;;19.54;56.22
64095;BME280;50353;51.420;5.682;2023-03-18T10:30:29;100780.69;;;19.74;55.49
64095;BME280;50353;51.420;5.682;2023-03-18T10:33:05;100777.63;;;19.33;55.97
64095;BME280;50353;51.420;5.682;2023-03-18T10:35:43;100771.81;;;19.37;55.05
64095;BME280;50353;51.420;5.682;2023-03-18T10:38:23;100768.75;;;19.50;55.23
64095;BME280;50353;51.420;5.682;2023-03-18T10:40:50;100760.78;;;19.76;54.80
64095;BME280;50353;51.420;5.682;2023-03-18T10:43:20;100768.53;;;19.43;55.14
64095;BME280;50353;51.420;5.682;2023-03-18T10:46:04;100763.00;;;19.99;53.94
64095;BME280;50353;51.420;5.682;2023-03-18T10:48:34;100758.84;;;19.15;56.07
64095;BME280;50353;51.420;5.682;2023-03-18T10:51:21;100768.81;;;19.22;55.38
64095;BME280;50353;51.420;5.682;2023-03-18T10:53:57;100777.84;;;20.38;53.86
64095;BME280;50353;51.420;5.682;2023-03-18T10:56:27;100762.91;;;20.62;52.43
64095;BME280;50353;51.420;5.682;2023-03-18T10:58:53;100760.34;;;20.86;52.22
64095;BME280;50353;51.420;5.682;2023-03-18T11:01:20;100767.28;;;20.36;52.55
64095;BME280;50353;51.420;5.682;2023-03-18T11:03:51;100773.00;;;20.68;50.25
64095;BME280;50353;51.420;5.682;2023-03-18T11:06:22;100769.59;;;19.51;53.13
64095;BME280;50353;51.420;5.682;2023-03-18T11:08:49;100771.66;;;19.39;54.72
64095;BME280;50353;51.420;5.682;2023-03-18T11:11:20;100774.56;;;19.00;54.58
64095;BME280;50353;51.420;5.682;2023-03-18T11:13:50;100778.59;;;19.14;54.93
64095;BME280;50353;51.420;5.682;2023-03-18T11:16:27;100772.13;;;18.69;57.91
64095;BME280;50353;51.420;5.682;2023-03-18T11:18:56;100775.19;;;18.46;56.36
64095;BME280;50353;51.420;5.682;2023-03-18T11:21:23;100779.81;;;18.54;57.26
64095;BME280;50353;51.420;5.682;2023-03-18T11:23:58;100786.47;;;18.40;57.84
64095;BME280;50353;51.420;5.682;2023-03-18T11:26:55;100781.28;;;18.76;57.95
64095;BME280;50353;51.420;5.682;2023-03-18T11:29:31;100784.75;;;18.58;55.53
64095;BME280;50353;51.420;5.682;2023-03-18T11:32:00;100794.81;;;18.74;55.85
64095;BME280;50353;51.420;5.682;2023-03-18T11:34:31;100789.94;;;18.98;55.57
64095;BME280;50353;51.420;5.682;2023-03-18T11:37:02;100794.31;;;18.51;57.97
64095;BME280;50353;51.420;5.682;2023-03-18T11:39:38;100793.06;;;18.46;58.25
64095;BME280;50353;51.420;5.682;2023-03-18T11:42:18;100792.97;;;18.28;58.34
64095;BME280;50353;51.420;5.682;2023-03-18T11:44:44;100790.31;;;18.28;58.95
64095;BME280;50353;51.420;5.682;2023-03-18T11:47:22;100798.91;;;18.12;58.64
64095;BME280;50353;51.420;5.682;2023-03-18T11:49:50;100795.28;;;18.03;58.60
64095;BME280;50353;51.420;5.682;2023-03-18T12:06:06;100793.56;;;18.69;59.62
64095;BME280;50353;51.420;5.682;2023-03-18T12:11:11;100795.41;;;18.11;58.61
64095;BME280;50353;51.420;5.682;2023-03-18T12:13:59;100792.16;;;17.88;58.99
64095;BME280;50353;51.420;5.682;2023-03-18T12:33:43;100782.00;;;17.72;59.08
64095;BME280;50353;51.420;5.682;2023-03-18T12:47:35;100777.78;;;17.30;66.67
64095;BME280;50353;51.420;5.682;2023-03-18T12:50:37;100770.50;;;17.71;67.56
64095;BME280;50353;51.420;5.682;2023-03-18T12:53:14;100770.16;;;17.35;68.36
64095;BME280;50353;51.420;5.682;2023-03-18T12:55:48;100777.53;;;17.82;66.09
64095;BME280;50353;51.420;5.682;2023-03-18T12:58:22;100779.03;;;17.26;68.12
64095;BME280;50353;51.420;5.682;2023-03-18T13:00:54;100778.88;;;17.18;68.14
64095;BME280;50353;51.420;5.682;2023-03-18T13:03:43;100781.00;;;17.44;66.66
64095;BME280;50353;51.420;5.682;2023-03-18T13:06:23;100786.09;;;17.76;66.19
64095;BME280;50353;51.420;5.682;2023-03-18T13:09:09;100782.28;;;17.88;62.24
64095;BME280;50353;51.420;5.682;2023-03-18T13:16:54;100788.00;;;16.84;62.15
64095;BME280;50353;51.420;5.682;2023-03-18T13:19:20;100778.00;;;17.08;64.30
64095;BME280;50353;51.420;5.682;2023-03-18T13:21:48;100779.28;;;17.33;63.14
64095;BME280;50353;51.420;5.682;2023-03-18T13:24:45;100786.53;;;17.62;62.39
64095;BME280;50353;51.420;5.682;2023-03-18T13:30:33;100770.50;;;17.71;60.06
64095;BME280;50353;51.420;5.682;2023-03-18T13:33:18;100768.38;;;17.85;59.65
64095;BME280;50353;51.420;5.682;2023-03-18T13:39:06;100772.56;;;18.17;59.62
64095;BME280;50353;51.420;5.682;2023-03-18T13:41:58;100774.72;;;17.64;61.86
64095;BME280;50353;51.420;5.682;2023-03-18T13:44:40;100766.38;;;17.38;62.36
64095;BME280;50353;51.420;5.682;2023-03-18T13:47:13;100767.25;;;17.38;61.71
64095;BME280;50353;51.420;5.682;2023-03-18T13:49:40;100766.81;;;17.63;61.26
64095;BME280;50353;51.420;5.682;2023-03-18T13:52:39;100770.88;;;17.47;61.93
64095;BME280;50353;51.420;5.682;2023-03-18T13:58:18;100761.75;;;17.40;62.36
64095;BME280;50353;51.420;5.682;2023-03-18T14:01:14;100773.94;;;17.23;61.92
64095;BME280;50353;51.420;5.682;2023-03-18T14:06:20;100768.53;;;18.03;58.92
64095;BME280;50353;51.420;5.682;2023-03-18T14:08:52;100760.91;;;17.79;60.50
64095;BME280;50353;51.420;5.682;2023-03-18T14:13:50;100755.31;;;17.92;60.46
64095;BME280;50353;51.420;5.682;2023-03-18T14:19:20;100748.38;;;18.08;57.73
64095;BME280;50353;51.420;5.682;2023-03-18T14:21:54;100745.25;;;18.13;56.89
64095;BME280;50353;51.420;5.682;2023-03-18T14:24:28;100737.69;;;18.08;58.10
64095;BME280;50353;51.420;5.682;2023-03-18T14:29:45;100738.13;;;17.45;58.73